Time;durP1;ratioP1;P1;durP2;ratioP2;P2;SDS_P1;SDS_P2;PMS_P1;PMS_P2;Temp;Humidity;BMP_temperature;BMP_pressure;BME280_temperature;BME280_humidity;BME280_pressure;Samples;Min_cycle;Max_cycle;Signal;HPM_P1;HPM_P2
2023/03/30 04:30:57;;;;;;;14.23;2.38;;;13.70;77.20;;;;;;5737949;23;20611;-75
2023/03/30 04:33:24;;;;;;;15.52;1.90;;;13.80;77.10;;;;;;4991937;28;20026;-79
2023/03/30 04:35:49;;;;;;;23.05;2.90;;;13.80;77.10;;;;;;4980176;28;20549;-77
2023/03/30 04:38:20;;;;;;;12.32;3.38;;;13.80;76.90;;;;;;4994838;28;20089;-79
2023/03/30 04:40:50;;;;;;;17.63;2.92;;;13.80;76.80;;;;;;4975907;28;20058;-78
2023/03/30 04:43:20;;;;;;;14.00;2.70;;;13.80;76.90;;;;;;4994732;28;20046;-78
2023/03/30 04:45:50;;;;;;;10.80;3.47;;;13.90;76.80;;;;;;4977145;28;20037;-79
2023/03/30 04:48:17;;;;;;;;;;;13.90;76.60;;;;;;4964860;28;20146;-79
2023/03/30 04:50:44;;;;;;;13.13;2.45;;;13.90;76.50;;;;;;4961437;28;20000;-79
2023/03/30 04:53:10;;;;;;;19.23;3.10;;;14.00;76.40;;;;;;4978890;28;20474;-79
2023/03/30 04:55:36;;;;;;;13.48;3.00;;;13.90;76.40;;;;;;4978459;28;20030;-79
2023/03/30 04:58:02;;;;;;;10.80;2.60;;;13.80;76.60;;;;;;4978731;28;20030;-78
2023/03/30 05:00:27;;;;;;;15.75;3.08;;;13.80;76.70;;;;;;4977444;28;20094;-77
2023/03/30 05:02:53;;;;;;;15.18;3.97;;;13.80;76.70;;;;;;4992642;28;20025;-78
2023/03/30 05:05:19;;;;;;;21.48;3.00;;;13.80;76.60;;;;;;4997777;28;20026;-78
2023/03/30 05:07:45;;;;;;;15.60;2.40;;;13.70;76.60;;;;;;4984158;28;20035;-79
2023/03/30 05:10:11;;;;;;;17.33;3.85;;;13.80;76.90;;;;;;4994151;28;20030;-78
2023/03/30 05:12:37;;;;;;;11.77;2.20;;;13.70;76.80;;;;;;4978361;28;20045;-78
2023/03/30 05:15:03;;;;;;;18.80;2.80;;;13.70;76.80;;;;;;4995038;28;20026;-78
2023/03/30 05:17:32;;;;;;;13.30;2.38;;;13.70;76.80;;;;;;4978256;28;20054;-78
2023/03/30 05:19:58;;;;;;;18.50;3.13;;;13.70;76.80;;;;;;4987416;28;20078;-78
2023/03/30 05:22:24;;;;;;;17.70;3.08;;;13.70;76.60;;;;;;4978017;28;20580;-77
2023/03/30 05:24:51;;;;;;;16.88;3.13;;;13.70;76.70;;;;;;4984337;28;20022;-80
2023/03/30 05:27:17;;;;;;;11.70;2.70;;;13.70;76.80;;;;;;4976757;28;20078;-80
2023/03/30 05:29:43;;;;;;;15.45;2.85;;;13.70;76.80;;;;;;4976593;28;20034;-81
2023/03/30 05:32:09;;;;;;;18.77;4.00;;;13.70;76.80;;;;;;4976485;28;20050;-81
2023/03/30 05:34:35;;;;;;;12.48;2.75;;;13.70;76.80;;;;;;4985805;28;20089;-81
2023/03/30 05:37:00;;;;;;;14.20;2.50;;;13.70;76.70;;;;;;4997117;28;20085;-81
2023/03/30 05:39:26;;;;;;;22.90;3.45;;;13.70;76.70;;;;;;4990020;28;20538;-81
2023/03/30 05:41:52;;;;;;;11.45;3.20;;;13.70;76.70;;;;;;4976170;28;20428;-81
2023/03/30 05:44:18;;;;;;;17.25;2.70;;;13.70;76.70;;;;;;4960340;28;20022;-81
2023/03/30 05:46:43;;;;;;;14.45;2.70;;;13.60;76.90;;;;;;4978159;28;20496;-81
2023/03/30 05:49:10;;;;;;;18.05;3.17;;;13.70;76.90;;;;;;4960366;28;20069;-81
2023/03/30 05:51:35;;;;;;;18.75;2.65;;;13.60;77.10;;;;;;4960381;28;20031;-80
2023/03/30 05:54:02;;;;;;;14.15;2.47;;;13.60;77.20;;;;;;4983315;28;20452;-82
2023/03/30 05:56:28;;;;;;;12.60;2.53;;;13.60;77.10;;;;;;4978452;28;20026;-82
2023/03/30 05:58:54;;;;;;;11.60;2.50;;;13.60;77.20;;;;;;4979146;28;20019;-83
2023/03/30 06:01:20;;;;;;;13.52;3.35;;;13.60;77.40;;;;;;4978937;28;20018;-84
2023/03/30 06:03:46;;;;;;;19.95;3.38;;;13.60;77.60;;;;;;4978839;28;20092;-85
2023/03/30 06:06:12;;;;;;;11.30;2.58;;;13.70;77.70;;;;;;4995849;28;20026;-83
2023/03/30 06:08:39;;;;;;;18.98;2.92;;;13.70;77.70;;;;;;4979191;28;20094;-81
2023/03/30 06:11:05;;;;;;;19.90;3.17;;;13.70;77.80;;;;;;4991035;28;20039;-81
2023/03/30 06:13:31;;;;;;;12.50;2.75;;;13.70;77.80;;;;;;4978537;28;20029;-81
2023/03/30 06:15:57;;;;;;;14.25;2.88;;;13.70;77.90;;;;;;4977491;28;20033;-80
2023/03/30 06:18:23;;;;;;;21.23;2.80;;;13.70;77.80;;;;;;4979125;28;20113;-83
2023/03/30 06:20:50;;;;;;;11.93;2.58;;;13.70;77.80;;;;;;4994793;28;20109;-82
2023/03/30 06:23:16;;;;;;;16.75;2.92;;;13.70;77.80;;;;;;4987622;28;20018;-82
2023/03/30 06:25:46;;;;;;;34.47;6.22;;;13.70;78.00;;;;;;4972902;28;20030;-82
2023/03/30 06:28:11;;;;;;;18.38;3.17;;;13.80;77.90;;;;;;4994652;28;20030;-82
2023/03/30 06:30:38;;;;;;;13.32;3.63;;;13.80;77.80;;;;;;4987176;28;20057;-82
2023/03/30 06:33:04;;;;;;;15.88;3.08;;;13.80;77.60;;;;;;4986082;28;20030;-83
2023/03/30 06:35:29;;;;;;;21.00;4.05;;;13.90;77.50;;;;;;4994714;28;20499;-83
2023/03/30 06:37:56;;;;;;;15.68;2.53;;;14.00;77.30;;;;;;4971811;28;20041;-83
2023/03/30 06:40:22;;;;;;;16.88;3.47;;;14.00;77.30;;;;;;4987335;28;20014;-83
2023/03/30 06:42:47;;;;;;;15.00;3.42;;;14.10;77.10;;;;;;4963261;28;20023;-83
2023/03/30 06:45:13;;;;;;;18.23;3.15;;;14.10;77.00;;;;;;4976992;28;20066;-83
2023/03/30 06:47:42;;;;;;;19.05;3.38;;;14.20;76.70;;;;;;4963079;28;20093;-83
2023/03/30 06:50:08;;;;;;;11.45;3.85;;;14.20;76.60;;;;;;4981957;28;20045;-83
2023/03/30 06:52:35;;;;;;;18.85;2.95;;;14.20;76.40;;;;;;4978727;28;20182;-83
2023/03/30 06:55:01;;;;;;;20.90;3.90;;;14.20;76.40;;;;;;4986177;28;20047;-83
2023/03/30 06:57:27;;;;;;;12.50;2.60;;;14.20;76.20;;;;;;4986624;28;20039;-83
2023/03/30 06:59:52;;;;;;;18.40;2.72;;;14.10;76.20;;;;;;4989094;28;20058;-83
2023/03/30 07:02:18;;;;;;;20.95;3.50;;;14.10;76.00;;;;;;4967971;28;20170;-83
2023/03/30 07:04:45;;;;;;;15.98;3.33;;;14.10;76.00;;;;;;4988410;28;20679;-83
2023/03/30 07:07:12;;;;;;;14.75;3.28;;;14.10;75.90;;;;;;4984702;28;20490;-83
2023/03/30 07:09:37;;;;;;;15.60;2.70;;;14.30;75.60;;;;;;4987565;28;20041;-83
2023/03/30 07:12:03;;;;;;;20.33;3.47;;;14.50;75.20;;;;;;4971879;28;20027;-83
2023/03/30 07:14:30;;;;;;;15.63;2.38;;;14.70;74.30;;;;;;4986949;28;20033;-84
2023/03/30 07:16:56;;;;;;;10.25;2.25;;;14.60;74.60;;;;;;4969200;28;20023;-83
2023/03/30 07:19:22;;;;;;;13.00;2.67;;;14.50;75.10;;;;;;4967043;28;20023;-83
2023/03/30 07:21:48;;;;;;;18.48;3.17;;;14.40;75.80;;;;;;4986885;28;20025;-83
2023/03/30 07:24:14;;;;;;;21.85;3.20;;;14.30;76.80;;;;;;4985849;28;20042;-83
2023/03/30 07:26:40;;;;;;;11.80;3.55;;;14.20;77.40;;;;;;4966801;28;20031;-83
2023/03/30 07:29:06;;;;;;;11.93;2.70;;;14.20;77.90;;;;;;4985473;28;20038;-83
2023/03/30 07:31:32;;;;;;;11.23;3.45;;;14.00;78.70;;;;;;4966567;28;20133;-83
2023/03/30 07:33:57;;;;;;;14.02;2.78;;;14.10;78.70;;;;;;4970624;28;20644;-83
2023/03/30 07:36:23;;;;;;;11.88;2.28;;;14.40;78.30;;;;;;4983375;28;20048;-83
2023/03/30 07:38:49;;;;;;;19.02;3.05;;;14.70;77.70;;;;;;4984612;28;20031;-83
2023/03/30 07:41:15;;;;;;;19.50;3.45;;;15.00;77.10;;;;;;4986500;28;20031;-83
2023/03/30 07:43:41;;;;;;;12.77;3.55;;;16.80;73.10;;;;;;4968097;28;20449;-82
2023/03/30 07:46:13;;;;;;;18.45;3.60;;;18.40;67.90;;;;;;4967977;28;20034;-84
2023/03/30 07:48:39;;;;;;;15.07;3.35;;;19.80;62.80;;;;;;4989874;28;20027;-84
2023/03/30 07:51:09;;;;;;;13.20;3.15;;;20.90;59.60;;;;;;4989609;28;20026;-84
2023/03/30 07:53:35;;;;;;;20.87;3.83;;;21.80;57.70;;;;;;4972483;28;20029;-84
2023/03/30 07:56:01;;;;;;;19.35;2.80;;;22.70;55.50;;;;;;4988065;28;20162;-84
2023/03/30 07:58:27;;;;;;;15.30;3.28;;;23.00;52.70;;;;;;4990816;28;20034;-84
2023/03/30 08:00:54;;;;;;;21.08;4.35;;;23.40;51.90;;;;;;4984317;28;20034;-84
2023/03/30 08:03:20;;;;;;;13.95;3.10;;;23.70;50.70;;;;;;4987244;28;20460;-83
2023/03/30 08:05:59;;;;;;;19.35;3.72;;;24.10;49.80;;;;;;4990522;28;20034;-84
2023/03/30 08:08:25;;;;;;;26.53;4.40;;;24.30;48.50;;;;;;4971823;28;20023;-84
2023/03/30 08:10:51;;;;;;;25.00;3.28;;;24.40;48.00;;;;;;4996039;28;20104;-84
2023/03/30 08:13:17;;;;;;;17.35;3.53;;;24.90;47.00;;;;;;4984625;28;20034;-84
2023/03/30 08:15:43;;;;;;;18.92;3.70;;;23.80;48.70;;;;;;4962487;28;20033;-84
2023/03/30 08:18:11;;;;;;;17.67;3.42;;;23.80;48.50;;;;;;4981469;28;20061;-84
2023/03/30 08:20:37;;;;;;;15.25;3.70;;;22.90;50.30;;;;;;4995309;28;20374;-85
2023/03/30 08:23:06;;;;;;;18.42;3.65;;;21.90;51.80;;;;;;4979614;28;20031;-83
2023/03/30 08:25:32;;;;;;;14.95;3.45;;;20.80;54.80;;;;;;4977844;28;20493;-84
2023/03/30 08:27:58;;;;;;;16.40;2.70;;;19.80;57.80;;;;;;4973670;28;20519;-83
2023/03/30 08:30:24;;;;;;;17.38;3.08;;;19.20;58.80;;;;;;4971907;28;20023;-84
2023/03/30 08:32:50;;;;;;;13.50;2.58;;;18.80;60.30;;;;;;4969504;28;20039;-83
2023/03/30 08:35:16;;;;;;;19.05;3.47;;;18.80;60.80;;;;;;4986289;28;20552;-83
2023/03/30 08:37:43;;;;;;;11.45;2.63;;;18.50;61.30;;;;;;4961973;28;20031;-83
2023/03/30 08:40:12;;;;;;;13.63;2.50;;;18.20;62.30;;;;;;4980439;28;20026;-84
2023/03/30 08:42:56;;;;;;;19.70;3.07;;;18.10;62.60;;;;;;4998910;28;20030;-83
2023/03/30 08:45:21;;;;;;;13.73;3.40;;;17.80;63.70;;;;;;4992329;28;20286;-83
2023/03/30 08:47:51;;;;;;;21.77;2.70;;;17.70;64.00;;;;;;4979289;28;20402;-83
2023/03/30 08:50:19;;;;;;;12.82;2.17;;;17.30;65.40;;;;;;4979702;28;20039;-82
2023/03/30 08:52:45;;;;;;;13.10;3.08;;;17.00;67.10;;;;;;4986042;28;20491;-82
2023/03/30 08:55:28;;;;;;;15.60;2.95;;;16.90;68.30;;;;;;4969548;28;20038;-83
2023/03/30 08:58:02;;;;;;;16.92;2.88;;;16.70;69.60;;;;;;4983982;28;20102;-82
2023/03/30 09:00:39;;;;;;;17.58;2.88;;;16.50;70.10;;;;;;4970897;28;20027;-83
2023/03/30 09:03:36;;;;;;;17.40;2.17;;;16.40;70.50;;;;;;4988636;28;20436;-83
2023/03/30 09:06:08;;;;;;;21.35;2.88;;;16.30;71.00;;;;;;4971282;28;20040;-83
2023/03/30 09:08:35;;;;;;;14.70;3.60;;;16.30;71.50;;;;;;4994519;28;20076;-83
2023/03/30 09:11:06;;;;;;;18.25;3.03;;;16.30;72.20;;;;;;4997011;28;20026;-83
2023/03/30 09:13:35;;;;;;;13.43;2.55;;;16.80;71.50;;;;;;4988007;28;20535;-83
2023/03/30 09:16:34;;;;;;;10.55;2.80;;;17.60;68.80;;;;;;4964839;28;20041;-82
2023/03/30 09:19:02;;;;;;;9.75;2.05;;;17.50;68.80;;;;;;4983152;28;20019;-84
2023/03/30 09:21:30;;;;;;;18.83;2.90;;;17.80;68.40;;;;;;4987454;28;20026;-84
2023/03/30 09:23:59;;;;;;;17.05;3.55;;;17.60;68.00;;;;;;4968604;28;20084;-83
2023/03/30 09:26:31;;;;;;;15.02;3.72;;;17.80;67.30;;;;;;4988826;28;20050;-84
2023/03/30 09:29:17;;;;;;;20.20;3.92;;;17.50;67.60;;;;;;4987468;28;20023;-84
2023/03/30 09:31:47;;;;;;;13.95;2.38;;;17.70;68.40;;;;;;4990321;28;20523;-84
2023/03/30 09:34:27;;;;;;;14.63;2.97;;;17.80;67.30;;;;;;4997207;28;20034;-84
2023/03/30 09:37:05;;;;;;;20.25;2.90;;;17.70;67.50;;;;;;4997487;28;20030;-83
2023/03/30 09:39:34;;;;;;;14.75;2.58;;;17.80;67.40;;;;;;4992307;28;20389;-83
2023/03/30 09:42:17;;;;;;;16.23;3.17;;;17.70;66.70;;;;;;4997207;28;20437;-83
2023/03/30 09:44:48;;;;;;;18.52;3.67;;;17.90;66.20;;;;;;4997277;28;20084;-83
2023/03/30 09:47:31;;;;;;;21.33;3.22;;;18.20;66.00;;;;;;4975579;28;20038;-83
2023/03/30 09:50:07;;;;;;;16.85;2.90;;;19.70;63.60;;;;;;4987355;28;20433;-83
2023/03/30 09:52:38;;;;;;;15.45;2.67;;;19.60;62.40;;;;;;4971012;28;20043;-84
2023/03/30 09:55:23;;;;;;;13.75;2.88;;;19.10;62.20;;;;;;4995645;28;20038;-81
2023/03/30 09:57:52;;;;;;;13.07;3.35;;;18.60;61.90;;;;;;4986315;28;20085;-81
2023/03/30 10:00:32;;;;;;;16.92;2.65;;;18.30;62.90;;;;;;4977689;28;20022;-81
2023/03/30 10:03:02;;;;;;;;;;;18.50;63.60;;;;;;4978145;28;20031;-81
2023/03/30 10:05:29;;;;;;;13.95;2.53;;;18.70;63.90;;;;;;4994877;28;20427;-82
2023/03/30 10:08:04;;;;;;;14.45;2.63;;;19.80;61.60;;;;;;4980330;28;20039;-82
2023/03/30 10:10:39;;;;;;;13.68;2.97;;;19.70;60.30;;;;;;4980523;28;20030;-82
2023/03/30 10:13:14;;;;;;;14.60;2.90;;;19.40;61.70;;;;;;4975859;28;20073;-83
2023/03/30 10:15:43;;;;;;;13.98;2.60;;;19.00;61.70;;;;;;4977167;28;20489;-81
2023/03/30 10:18:18;;;;;;;12.95;3.60;;;19.30;61.80;;;;;;4993471;28;20022;-80
2023/03/30 10:20:51;;;;;;;12.00;2.55;;;19.90;60.50;;;;;;4996635;28;20078;-81
2023/03/30 10:23:21;;;;;;;12.43;2.13;;;20.10;58.70;;;;;;4996218;28;20019;-81
2023/03/30 10:25:50;;;;;;;18.60;3.00;;;19.80;59.90;;;;;;4977205;28;20055;-81
2023/03/30 10:28:24;;;;;;;17.25;3.88;;;19.40;61.20;;;;;;4976444;28;20054;-81
2023/03/30 10:31:07;;;;;;;12.55;2.22;;;19.00;61.80;;;;;;4988594;28;20050;-81
2023/03/30 10:33:40;;;;;;;18.35;2.58;;;18.80;62.60;;;;;;4996558;28;20019;-80
2023/03/30 10:36:06;;;;;;;13.95;2.78;;;18.90;62.90;;;;;;4975171;28;20057;-79
2023/03/30 10:38:33;;;;;;;9.70;2.15;;;19.20;63.20;;;;;;4977278;28;20050;-81
2023/03/30 10:41:19;;;;;;;19.63;3.58;;;19.20;62.90;;;;;;4971407;28;20030;-87
2023/03/30 10:43:45;;;;;;;14.15;2.85;;;19.30;62.60;;;;;;4996593;28;20040;-86
2023/03/30 10:46:16;;;;;;;12.80;2.50;;;19.60;62.00;;;;;;4996460;28;20104;-82
2023/03/30 10:48:59;;;;;;;14.80;2.72;;;19.60;62.20;;;;;;4987661;28;20023;-82
2023/03/30 10:51:57;;;;;;;15.15;2.72;;;19.60;63.50;;;;;;4977017;28;20031;-84
2023/03/30 10:54:31;;;;;;;10.63;2.08;;;19.80;63.10;;;;;;4976948;28;20560;-83
2023/03/30 10:57:05;;;;;;;11.57;2.38;;;19.90;61.20;;;;;;4977332;28;20027;-82
2023/03/30 10:59:40;;;;;;;14.10;2.38;;;20.00;61.10;;;;;;4977185;28;20165;-82
2023/03/30 11:02:20;;;;;;;11.85;2.47;;;19.90;60.70;;;;;;4962009;28;20515;-82
2023/03/30 11:04:56;;;;;;;12.95;2.53;;;19.60;61.10;;;;;;4994356;28;20044;-81
2023/03/30 11:07:34;;;;;;;8.93;2.25;;;19.60;62.70;;;;;;4974913;28;20023;-78
2023/03/30 11:10:44;;;;;;;10.32;1.83;;;19.60;61.90;;;;;;4978247;28;20039;-75
2023/03/30 11:13:18;;;;;;;10.48;1.88;;;19.50;60.10;;;;;;4901128;29;20615;-76
2023/03/30 11:15:52;;;;;;;10.85;1.98;;;19.20;60.20;;;;;;4916948;29;20040;-75
2023/03/30 11:18:20;;;;;;;12.00;1.85;;;19.00;61.00;;;;;;4956790;28;20042;-75
2023/03/30 11:21:09;;;;;;;13.32;2.50;;;19.20;61.00;;;;;;4978464;28;20106;-75
2023/03/30 11:23:55;;;;;;;14.38;2.70;;;19.20;60.10;;;;;;4980598;28;20114;-76
2023/03/30 11:26:33;;;;;;;7.82;2.03;;;19.00;59.60;;;;;;4980931;28;20031;-76
2023/03/30 11:29:46;;;;;;;15.73;2.33;;;18.90;58.90;;;;;;4997479;28;20057;-75
2023/03/30 11:32:54;;;;;;;8.63;2.47;;;19.00;60.20;;;;;;4938294;28;20527;-75
2023/03/30 11:35:33;;;;;;;14.88;2.35;;;19.10;60.20;;;;;;4990850;28;20027;-75
2023/03/30 11:38:11;;;;;;;11.43;1.58;;;19.10;60.60;;;;;;4980653;28;20026;-76
2023/03/30 11:41:22;;;;;;;13.35;2.25;;;19.00;60.20;;;;;;4984976;28;20037;-76
2023/03/30 11:43:54;;;;;;;15.73;2.33;;;19.00;61.40;;;;;;4977173;28;20046;-74
2023/03/30 11:46:29;;;;;;;13.98;2.30;;;19.00;60.80;;;;;;4980381;28;20062;-76
2023/03/30 11:49:26;;;;;;;13.65;2.28;;;19.10;60.00;;;;;;4980203;28;20061;-76
2023/03/30 11:52:07;;;;;;;13.57;2.85;;;19.20;60.90;;;;;;4962507;28;20118;-76
2023/03/30 11:54:42;;;;;;;16.60;2.60;;;19.20;60.80;;;;;;4980004;28;20039;-75
2023/03/30 11:57:22;;;;;;;19.17;3.42;;;19.30;60.70;;;;;;4979937;28;20110;-76
2023/03/30 12:00:29;;;;;;;11.23;2.33;;;19.10;59.60;;;;;;4979973;28;20034;-75
2023/03/30 12:03:28;;;;;;;13.18;2.35;;;18.70;60.00;;;;;;4940864;28;20040;-76
2023/03/30 12:06:33;;;;;;;13.82;2.50;;;18.30;65.60;;;;;;4980042;28;20027;-76
2023/03/30 12:09:24;;;;;;;9.73;1.92;;;18.60;67.80;;;;;;4979739;28;20037;-76
2023/03/30 12:12:17;;;;;;;9.95;2.38;;;18.60;67.00;;;;;;4981332;28;20034;-84
2023/03/30 12:14:48;;;;;;;8.98;2.00;;;18.60;67.10;;;;;;4979859;28;20027;-75
2023/03/30 12:17:42;;;;;;;9.77;2.10;;;18.60;65.50;;;;;;4961964;28;20446;-75
2023/03/30 12:20:16;;;;;;;9.07;1.75;;;18.60;65.70;;;;;;4979928;28;20027;-76
2023/03/30 12:23:24;;;;;;;16.70;2.83;;;18.70;67.40;;;;;;4962210;28;20047;-76
2023/03/30 12:26:20;;;;;;;11.48;2.20;;;18.70;65.30;;;;;;4973868;28;20090;-76
2023/03/30 12:28:57;;;;;;;12.15;2.55;;;18.80;64.50;;;;;;4980096;28;20031;-76
2023/03/30 12:31:43;;;;;;;15.73;2.83;;;18.80;64.40;;;;;;4986018;28;20102;-76
2023/03/30 12:34:09;;;;;;;13.35;2.78;;;19.00;63.80;;;;;;4984775;28;20034;-78
2023/03/30 12:36:40;;;;;;;17.80;2.38;;;19.30;63.20;;;;;;4998621;28;20022;-76
2023/03/30 12:39:30;;;;;;;10.80;1.92;;;19.50;62.50;;;;;;4983492;28;20031;-76
2023/03/30 12:42:38;;;;;;;15.70;2.28;;;19.70;61.70;;;;;;4994427;28;20105;-75
2023/03/30 12:45:11;;;;;;;8.73;3.05;;;19.70;60.40;;;;;;4959269;28;20109;-76
2023/03/30 12:47:43;;;;;;;12.45;2.42;;;19.60;61.30;;;;;;4978849;28;20038;-75
2023/03/30 12:50:11;;;;;;;12.02;1.80;;;19.40;59.60;;;;;;4961527;28;20449;-76
2023/03/30 12:52:47;;;;;;;12.63;2.35;;;19.20;59.80;;;;;;4961506;28;20034;-75
2023/03/30 12:55:31;;;;;;;20.67;2.55;;;19.00;59.50;;;;;;4977766;28;20031;-76
2023/03/30 12:58:11;;;;;;;10.48;2.42;;;18.90;60.60;;;;;;4977587;28;20023;-75
2023/03/30 13:00:53;;;;;;;12.63;2.65;;;19.00;60.90;;;;;;4979546;28;20493;-80
2023/03/30 13:03:21;;;;;;;15.75;2.55;;;19.10;61.20;;;;;;4979379;28;20015;-76
2023/03/30 13:05:52;;;;;;;10.70;2.00;;;19.20;61.60;;;;;;4980043;28;20049;-75
2023/03/30 13:08:26;;;;;;;15.05;2.50;;;19.10;60.70;;;;;;4997538;28;20030;-76
2023/03/30 13:11:14;;;;;;;15.13;3.10;;;19.10;60.60;;;;;;4980036;28;20058;-75
2023/03/30 13:13:45;;;;;;;14.05;2.30;;;19.10;60.40;;;;;;4980417;28;20121;-75
2023/03/30 13:16:11;;;;;;;6.15;1.38;;;19.00;61.20;;;;;;4997941;28;20065;-75
2023/03/30 13:18:55;;;;;;;11.60;1.98;;;18.80;61.00;;;;;;4980043;28;20090;-75
2023/03/30 13:21:24;;;;;;;14.55;2.88;;;18.60;61.30;;;;;;4978660;28;20044;-75
2023/03/30 13:24:19;;;;;;;12.80;2.30;;;18.70;61.00;;;;;;4961189;28;20077;-76
2023/03/30 13:26:45;;;;;;;17.63;2.30;;;18.80;59.80;;;;;;4978447;28;20038;-75
2023/03/30 13:29:14;;;;;;;15.80;3.38;;;18.80;60.50;;;;;;4978304;28;20493;-75
2023/03/30 13:31:43;;;;;;;13.43;2.63;;;18.80;60.90;;;;;;4966921;28;20089;-75
2023/03/30 13:34:08;;;;;;;10.82;2.92;;;18.90;60.50;;;;;;4985640;28;20290;-76
2023/03/30 13:36:43;;;;;;;13.23;2.17;;;19.00;59.60;;;;;;4997597;28;20026;-75
2023/03/30 13:39:26;;;;;;;8.05;2.15;;;18.90;58.60;;;;;;4980117;28;20022;-75
2023/03/30 13:42:11;;;;;;;19.50;2.95;;;18.80;58.90;;;;;;4990976;28;20033;-75
2023/03/30 13:44:55;;;;;;;12.90;2.55;;;18.70;58.90;;;;;;4996495;28;20042;-75
2023/03/30 13:47:53;;;;;;;10.10;3.05;;;18.80;59.00;;;;;;4995981;28;20489;-76
2023/03/30 13:50:26;;;;;;;10.15;2.25;;;18.80;58.80;;;;;;4991318;28;20046;-75
2023/03/30 13:52:54;;;;;;;17.02;2.03;;;18.70;58.90;;;;;;4979935;28;20049;-74
2023/03/30 13:55:25;;;;;;;13.70;2.25;;;18.70;59.70;;;;;;4975490;28;20039;-75
2023/03/30 13:57:58;;;;;;;16.70;2.90;;;18.80;59.80;;;;;;4977863;28;20386;-75
2023/03/30 14:00:55;;;;;;;13.48;2.13;;;18.80;59.30;;;;;;4978097;28;20095;-75
2023/03/30 14:03:32;;;;;;;17.15;3.35;;;18.80;59.40;;;;;;4952984;28;20041;-75
2023/03/30 14:06:04;;;;;;;16.38;2.50;;;18.80;60.20;;;;;;4997026;28;20041;-75
2023/03/30 14:08:35;;;;;;;13.45;2.20;;;18.80;59.40;;;;;;4983996;28;20117;-75
2023/03/30 14:11:14;;;;;;;7.95;1.65;;;18.80;59.30;;;;;;4983427;28;20038;-75
2023/03/30 14:13:40;;;;;;;16.98;2.80;;;18.80;59.00;;;;;;4977440;28;20026;-75
2023/03/30 14:16:08;;;;;;;12.80;2.75;;;18.80;59.10;;;;;;4977399;28;20038;-75
2023/03/30 14:18:34;;;;;;;15.65;2.25;;;18.70;59.40;;;;;;4960090;28;20023;-75
2023/03/30 14:21:02;;;;;;;11.55;2.22;;;18.60;58.70;;;;;;4977242;28;20040;-75
2023/03/30 14:23:36;;;;;;;9.93;1.90;;;18.40;58.90;;;;;;4976093;28;20022;-75
2023/03/30 14:26:13;;;;;;;9.05;1.83;;;18.30;59.60;;;;;;4976371;28;20524;-75
2023/03/30 14:28:41;;;;;;;12.82;2.47;;;18.10;59.90;;;;;;4977320;28;20023;-75
2023/03/30 14:31:18;;;;;;;12.93;1.85;;;18.00;60.40;;;;;;4974804;28;20391;-75
2023/03/30 14:33:44;;;;;;;15.52;2.85;;;17.90;61.30;;;;;;4979115;28;20014;-75
2023/03/30 14:36:16;;;;;;;12.50;1.98;;;17.80;62.00;;;;;;4995398;28;20053;-75
2023/03/30 14:38:52;;;;;;;10.60;2.72;;;17.90;62.50;;;;;;4967551;28;20093;-76
2023/03/30 14:41:26;;;;;;;15.23;2.80;;;18.10;62.80;;;;;;4987601;28;20024;-75
2023/03/30 14:43:57;;;;;;;17.08;2.35;;;18.00;62.80;;;;;;4979443;28;20041;-76
2023/03/30 14:46:27;;;;;;;10.77;2.50;;;18.00;63.30;;;;;;4977116;28;20085;-75
2023/03/30 14:48:53;;;;;;;12.38;2.50;;;18.10;63.20;;;;;;4975549;28;20508;-75
2023/03/30 14:51:23;;;;;;;11.18;1.80;;;18.00;62.20;;;;;;4975631;28;20521;-75
2023/03/30 14:53:51;;;;;;;11.98;2.65;;;17.90;62.40;;;;;;4975070;28;20027;-75
2023/03/30 14:56:17;;;;;;;14.60;3.03;;;17.90;62.50;;;;;;4976620;28;20494;-75
2023/03/30 14:58:43;;;;;;;20.45;2.65;;;17.90;62.80;;;;;;4959639;28;20023;-75
2023/03/30 15:01:12;;;;;;;15.65;3.53;;;17.90;63.00;;;;;;4976787;28;20047;-75
2023/03/30 15:03:40;;;;;;;18.25;2.38;;;17.80;63.00;;;;;;4980494;28;20069;-75
2023/03/30 15:06:08;;;;;;;16.38;3.25;;;17.80;62.80;;;;;;4996412;28;20042;-75
2023/03/30 15:08:38;;;;;;;14.65;1.75;;;17.60;62.80;;;;;;4996251;28;20077;-75
2023/03/30 15:11:15;;;;;;;14.13;2.33;;;17.60;63.00;;;;;;4996240;28;20046;-75
2023/03/30 15:13:45;;;;;;;14.95;2.30;;;17.60;62.80;;;;;;4977808;28;20097;-75
2023/03/30 15:16:16;;;;;;;9.10;2.03;;;17.50;62.00;;;;;;4978285;28;20030;-75
2023/03/30 15:18:42;;;;;;;11.30;2.67;;;17.50;62.70;;;;;;4978735;28;20465;-75
2023/03/30 15:21:11;;;;;;;17.20;3.42;;;17.40;62.40;;;;;;4984613;28;20077;-75
2023/03/30 15:23:40;;;;;;;12.57;2.53;;;17.40;63.20;;;;;;4976825;28;20027;-75
2023/03/30 15:26:07;;;;;;;18.00;2.13;;;17.40;62.70;;;;;;4976722;28;20149;-75
2023/03/30 15:28:47;;;;;;;11.95;2.67;;;17.40;62.10;;;;;;4959153;28;20023;-75
2023/03/30 15:31:14;;;;;;;16.75;3.00;;;17.30;62.50;;;;;;4976544;28;20126;-75
2023/03/30 15:33:52;;;;;;;22.15;2.88;;;17.30;63.10;;;;;;4979910;28;20545;-75
2023/03/30 15:36:24;;;;;;;12.70;1.90;;;17.40;63.20;;;;;;4989186;28;20081;-75
2023/03/30 15:38:52;;;;;;;17.10;2.30;;;17.50;62.90;;;;;;4962834;28;20032;-75
2023/03/30 15:41:22;;;;;;;14.55;2.72;;;17.30;62.80;;;;;;4976280;28;20042;-75
2023/03/30 15:43:57;;;;;;;13.27;2.70;;;17.20;63.20;;;;;;4981105;28;20114;-75
2023/03/30 15:46:23;;;;;;;10.68;2.40;;;17.20;63.50;;;;;;4976393;28;20082;-75
2023/03/30 15:48:52;;;;;;;11.65;2.83;;;17.30;63.50;;;;;;4976857;28;20031;-75
2023/03/30 15:51:26;;;;;;;13.18;2.90;;;17.20;63.40;;;;;;4976414;28;20513;-75
2023/03/30 15:54:02;;;;;;;11.95;1.83;;;17.20;63.60;;;;;;4974979;28;20038;-75
2023/03/30 15:56:38;;;;;;;18.27;3.53;;;17.20;64.00;;;;;;4976407;28;20030;-75
2023/03/30 15:59:10;;;;;;;10.77;2.70;;;17.20;64.40;;;;;;4959001;28;20066;-83
2023/03/30 16:01:47;;;;;;;13.90;2.70;;;17.30;64.70;;;;;;4985149;28;20033;-78
2023/03/30 16:04:16;;;;;;;11.93;2.50;;;17.30;64.40;;;;;;4989769;28;20045;-77
2023/03/30 16:06:42;;;;;;;20.33;4.90;;;17.20;64.70;;;;;;4985257;28;20043;-76
2023/03/30 16:09:08;;;;;;;14.43;1.98;;;17.20;64.40;;;;;;4990777;28;20038;-76
2023/03/30 16:11:34;;;;;;;14.18;2.65;;;17.10;64.50;;;;;;4992720;28;20015;-77
2023/03/30 16:13:59;;;;;;;20.92;3.33;;;17.00;64.80;;;;;;4989930;28;20038;-76
2023/03/30 16:16:25;;;;;;;14.98;2.80;;;17.00;65.10;;;;;;4991580;28;20030;-77
2023/03/30 16:18:51;;;;;;;19.63;3.13;;;17.00;65.20;;;;;;4997870;28;20026;-77
2023/03/30 16:21:17;;;;;;;12.75;2.75;;;17.00;65.00;;;;;;4980873;28;20023;-76
2023/03/30 16:23:43;;;;;;;15.43;2.45;;;17.00;65.20;;;;;;4980311;28;20061;-77
2023/03/30 16:26:12;;;;;;;17.83;2.67;;;16.80;65.90;;;;;;4980618;28;20370;-76
2023/03/30 16:28:38;;;;;;;13.32;2.83;;;16.80;66.00;;;;;;4998401;28;20505;-77
2023/03/30 16:31:11;;;;;;;15.27;2.33;;;16.80;66.30;;;;;;4995822;28;20049;-77
2023/03/30 16:33:37;;;;;;;15.90;3.00;;;16.70;66.10;;;;;;4991606;28;20126;-77
2023/03/30 16:36:03;;;;;;;12.90;2.70;;;16.60;66.50;;;;;;4990788;28;20042;-77
2023/03/30 16:38:29;;;;;;;15.60;2.65;;;16.50;67.00;;;;;;4990973;28;20105;-77
2023/03/30 16:40:57;;;;;;;16.67;2.33;;;16.40;67.10;;;;;;4985715;28;20022;-77
2023/03/30 16:43:24;;;;;;;11.00;2.03;;;16.40;67.50;;;;;;4989919;28;20030;-77
2023/03/30 16:45:50;;;;;;;17.20;2.58;;;16.40;67.50;;;;;;4969545;28;20037;-77
2023/03/30 16:48:16;;;;;;;13.90;2.45;;;16.30;67.60;;;;;;4972669;28;21735;-77
2023/03/30 16:50:44;;;;;;;18.55;2.70;;;16.40;67.40;;;;;;4987051;28;20019;-77
2023/03/30 16:53:10;;;;;;;14.35;2.55;;;16.30;67.20;;;;;;4987381;28;20125;-77
2023/03/30 16:55:36;;;;;;;16.88;2.58;;;16.30;67.30;;;;;;4987105;28;20034;-77
2023/03/30 16:58:03;;;;;;;7.22;1.58;;;16.20;67.60;;;;;;4967078;28;20038;-78
2023/03/30 17:00:32;;;;;;;16.55;2.08;;;16.10;67.90;;;;;;4984568;28;20026;-80
2023/03/30 17:02:57;;;;;;;10.63;1.73;;;16.00;67.60;;;;;;4971491;28;20026;-81
2023/03/30 17:05:23;;;;;;;17.63;2.60;;;16.00;67.90;;;;;;4991959;28;20030;-81
2023/03/30 17:07:53;;;;;;;10.60;3.05;;;16.00;68.30;;;;;;4972547;28;20045;-79
2023/03/30 17:10:27;;;;;;;14.88;2.72;;;15.90;68.00;;;;;;4990584;28;20014;-76
2023/03/30 17:12:54;;;;;;;9.20;2.22;;;15.80;68.40;;;;;;4970428;28;20513;-76
2023/03/30 17:15:21;;;;;;;18.60;3.65;;;15.80;68.60;;;;;;4988234;28;20030;-77
2023/03/30 17:17:48;;;;;;;17.08;2.67;;;15.80;68.90;;;;;;4986207;28;20161;-77
2023/03/30 17:20:29;;;;;;;17.80;2.92;;;15.80;68.80;;;;;;4972244;28;20030;-77
2023/03/30 17:22:55;;;;;;;7.03;1.75;;;15.90;68.80;;;;;;4983243;28;20027;-75
2023/03/30 17:25:25;;;;;;;12.82;2.85;;;15.80;68.70;;;;;;4987646;28;20508;-78
2023/03/30 17:27:52;;;;;;;16.55;2.72;;;15.80;68.80;;;;;;4984579;28;20031;-77
2023/03/30 17:30:29;;;;;;;16.80;2.95;;;15.80;69.10;;;;;;4987807;28;20097;-80
2023/03/30 17:32:55;;;;;;;12.82;2.90;;;15.70;69.10;;;;;;4987002;28;20043;-78